sensor_id;sensor_type;location;lat;lon;timestamp;P1;durP1;ratioP1;P2;durP2;ratioP2
31734;SDS011;18313;48.518;9.124;2023-09-18T00:00:33;5.60;;;2.97;;
31734;SDS011;18313;48.518;9.124;2023-09-18T00:03:01;6.22;;;2.90;;
31734;SDS011;18313;48.518;9.124;2023-09-18T00:05:30;7.50;;;3.20;;
31734;SDS011;18313;48.518;9.124;2023-09-18T00:07:58;6.13;;;3.47;;
31734;SDS011;18313;48.518;9.124;2023-09-18T00:10:28;6.80;;;2.90;;
31734;SDS011;18313;48.518;9.124;2023-09-18T00:12:57;6.95;;;2.95;;
31734;SDS011;18313;48.518;9.124;2023-09-18T00:15:24;6.05;;;3.08;;
31734;SDS011;18313;48.518;9.124;2023-09-18T00:17:51;7.03;;;3.00;;
31734;SDS011;18313;48.518;9.124;2023-09-18T00:20:19;6.85;;;2.70;;
31734;SDS011;18313;48.518;9.124;2023-09-18T00:22:46;6.55;;;2.88;;
31734;SDS011;18313;48.518;9.124;2023-09-18T00:25:14;9.82;;;2.58;;
31734;SDS011;18313;48.518;9.124;2023-09-18T00:27:41;6.22;;;2.70;;
31734;SDS011;18313;48.518;9.124;2023-09-18T00:30:10;8.40;;;2.90;;
31734;SDS011;18313;48.518;9.124;2023-09-18T00:32:38;7.30;;;3.30;;
31734;SDS011;18313;48.518;9.124;2023-09-18T00:35:05;6.68;;;3.10;;
31734;SDS011;18313;48.518;9.124;2023-09-18T00:37:34;5.95;;;2.83;;
31734;SDS011;18313;48.518;9.124;2023-09-18T00:40:04;9.35;;;3.38;;
31734;SDS011;18313;48.518;9.124;2023-09-18T00:42:31;5.97;;;2.70;;
31734;SDS011;18313;48.518;9.124;2023-09-18T00:44:58;7.07;;;2.97;;
31734;SDS011;18313;48.518;9.124;2023-09-18T00:47:26;8.88;;;2.83;;
31734;SDS011;18313;48.518;9.124;2023-09-18T00:49:53;6.07;;;2.83;;
31734;SDS011;18313;48.518;9.124;2023-09-18T00:52:22;6.72;;;2.67;;
31734;SDS011;18313;48.518;9.124;2023-09-18T00:54:50;7.72;;;3.00;;
31734;SDS011;18313;48.518;9.124;2023-09-18T00:57:19;10.27;;;3.10;;
31734;SDS011;18313;48.518;9.124;2023-09-18T00:59:47;9.55;;;3.20;;
31734;SDS011;18313;48.518;9.124;2023-09-18T01:02:14;6.72;;;2.92;;
31734;SDS011;18313;48.518;9.124;2023-09-18T01:04:42;10.98;;;3.00;;
31734;SDS011;18313;48.518;9.124;2023-09-18T01:07:10;7.97;;;3.10;;
31734;SDS011;18313;48.518;9.124;2023-09-18T01:09:38;11.18;;;3.00;;
31734;SDS011;18313;48.518;9.124;2023-09-18T01:12:08;7.10;;;2.80;;
31734;SDS011;18313;48.518;9.124;2023-09-18T01:14:44;7.60;;;2.90;;
31734;SDS011;18313;48.518;9.124;2023-09-18T01:17:22;9.05;;;3.25;;
31734;SDS011;18313;48.518;9.124;2023-09-18T01:19:49;5.95;;;2.60;;
31734;SDS011;18313;48.518;9.124;2023-09-18T01:22:17;8.68;;;3.05;;
31734;SDS011;18313;48.518;9.124;2023-09-18T01:24:46;5.90;;;2.80;;
31734;SDS011;18313;48.518;9.124;2023-09-18T01:27:15;5.63;;;2.90;;
31734;SDS011;18313;48.518;9.124;2023-09-18T01:29:44;5.05;;;2.58;;
31734;SDS011;18313;48.518;9.124;2023-09-18T01:32:14;4.38;;;2.65;;
31734;SDS011;18313;48.518;9.124;2023-09-18T01:34:51;7.50;;;3.20;;
31734;SDS011;18313;48.518;9.124;2023-09-18T01:37:22;4.65;;;2.78;;
31734;SDS011;18313;48.518;9.124;2023-09-18T01:39:51;7.15;;;3.20;;
31734;SDS011;18313;48.518;9.124;2023-09-18T01:42:20;11.07;;;3.80;;
31734;SDS011;18313;48.518;9.124;2023-09-18T01:44:47;6.65;;;3.20;;
31734;SDS011;18313;48.518;9.124;2023-09-18T01:47:18;10.25;;;3.10;;
31734;SDS011;18313;48.518;9.124;2023-09-18T01:49:46;7.03;;;3.17;;
31734;SDS011;18313;48.518;9.124;2023-09-18T01:52:13;9.52;;;3.70;;
31734;SDS011;18313;48.518;9.124;2023-09-18T01:54:40;8.90;;;3.55;;
31734;SDS011;18313;48.518;9.124;2023-09-18T01:57:07;5.30;;;3.20;;
31734;SDS011;18313;48.518;9.124;2023-09-18T01:59:34;5.63;;;3.00;;
31734;SDS011;18313;48.518;9.124;2023-09-18T02:02:04;11.00;;;3.25;;
31734;SDS011;18313;48.518;9.124;2023-09-18T02:04:35;7.80;;;3.40;;
31734;SDS011;18313;48.518;9.124;2023-09-18T02:07:23;7.88;;;3.22;;
31734;SDS011;18313;48.518;9.124;2023-09-18T02:09:50;6.18;;;3.25;;
31734;SDS011;18313;48.518;9.124;2023-09-18T02:12:17;6.95;;;3.10;;
31734;SDS011;18313;48.518;9.124;2023-09-18T02:14:45;10.32;;;3.08;;
31734;SDS011;18313;48.518;9.124;2023-09-18T02:17:12;8.90;;;3.30;;
31734;SDS011;18313;48.518;9.124;2023-09-18T02:19:39;7.10;;;3.03;;
31734;SDS011;18313;48.518;9.124;2023-09-18T02:22:07;8.63;;;3.17;;
31734;SDS011;18313;48.518;9.124;2023-09-18T02:24:34;9.35;;;3.17;;
31734;SDS011;18313;48.518;9.124;2023-09-18T02:27:04;6.10;;;3.00;;
31734;SDS011;18313;48.518;9.124;2023-09-18T02:29:32;6.60;;;3.53;;
31734;SDS011;18313;48.518;9.124;2023-09-18T02:32:00;9.38;;;3.20;;
31734;SDS011;18313;48.518;9.124;2023-09-18T02:34:27;6.05;;;2.90;;
31734;SDS011;18313;48.518;9.124;2023-09-18T02:36:54;8.75;;;3.00;;
31734;SDS011;18313;48.518;9.124;2023-09-18T02:39:21;10.00;;;3.30;;
31734;SDS011;18313;48.518;9.124;2023-09-18T02:41:48;8.45;;;3.92;;
31734;SDS011;18313;48.518;9.124;2023-09-18T02:44:15;6.47;;;3.15;;
31734;SDS011;18313;48.518;9.124;2023-09-18T02:46:42;11.80;;;3.55;;
31734;SDS011;18313;48.518;9.124;2023-09-18T02:49:10;7.65;;;3.40;;
31734;SDS011;18313;48.518;9.124;2023-09-18T02:51:37;6.03;;;2.97;;
31734;SDS011;18313;48.518;9.124;2023-09-18T02:54:04;6.40;;;3.25;;
31734;SDS011;18313;48.518;9.124;2023-09-18T02:56:32;7.80;;;3.30;;
31734;SDS011;18313;48.518;9.124;2023-09-18T02:58:59;9.73;;;3.67;;
31734;SDS011;18313;48.518;9.124;2023-09-18T03:01:26;8.20;;;3.50;;
31734;SDS011;18313;48.518;9.124;2023-09-18T03:03:53;7.28;;;3.30;;
31734;SDS011;18313;48.518;9.124;2023-09-18T03:06:21;9.93;;;3.33;;
31734;SDS011;18313;48.518;9.124;2023-09-18T03:08:48;9.80;;;3.15;;
31734;SDS011;18313;48.518;9.124;2023-09-18T03:11:16;6.97;;;3.15;;
31734;SDS011;18313;48.518;9.124;2023-09-18T03:13:44;5.78;;;3.10;;
31734;SDS011;18313;48.518;9.124;2023-09-18T03:16:13;10.80;;;3.03;;
31734;SDS011;18313;48.518;9.124;2023-09-18T03:18:40;8.10;;;3.40;;
31734;SDS011;18313;48.518;9.124;2023-09-18T03:21:08;8.77;;;3.45;;
31734;SDS011;18313;48.518;9.124;2023-09-18T03:23:35;9.55;;;3.13;;
31734;SDS011;18313;48.518;9.124;2023-09-18T03:26:03;8.57;;;4.05;;
31734;SDS011;18313;48.518;9.124;2023-09-18T03:28:30;8.90;;;3.35;;
31734;SDS011;18313;48.518;9.124;2023-09-18T03:30:57;9.45;;;3.88;;
31734;SDS011;18313;48.518;9.124;2023-09-18T03:33:25;8.38;;;3.53;;
31734;SDS011;18313;48.518;9.124;2023-09-18T03:35:52;9.50;;;3.20;;
31734;SDS011;18313;48.518;9.124;2023-09-18T03:38:21;9.15;;;3.30;;
31734;SDS011;18313;48.518;9.124;2023-09-18T03:40:49;9.07;;;3.05;;
31734;SDS011;18313;48.518;9.124;2023-09-18T03:43:16;6.13;;;2.88;;
31734;SDS011;18313;48.518;9.124;2023-09-18T03:45:44;6.95;;;2.80;;
31734;SDS011;18313;48.518;9.124;2023-09-18T03:48:11;7.30;;;3.22;;
31734;SDS011;18313;48.518;9.124;2023-09-18T03:50:39;6.35;;;3.05;;
31734;SDS011;18313;48.518;9.124;2023-09-18T03:53:07;10.30;;;3.00;;
31734;SDS011;18313;48.518;9.124;2023-09-18T03:55:35;9.38;;;2.60;;
31734;SDS011;18313;48.518;9.124;2023-09-18T03:58:04;7.57;;;3.00;;
31734;SDS011;18313;48.518;9.124;2023-09-18T04:00:31;7.38;;;3.05;;
31734;SDS011;18313;48.518;9.124;2023-09-18T04:02:59;9.38;;;3.00;;
31734;SDS011;18313;48.518;9.124;2023-09-18T04:05:26;11.25;;;3.22;;
31734;SDS011;18313;48.518;9.124;2023-09-18T04:07:54;10.00;;;3.10;;
31734;SDS011;18313;48.518;9.124;2023-09-18T04:10:21;10.85;;;2.92;;
31734;SDS011;18313;48.518;9.124;2023-09-18T04:12:51;5.57;;;3.08;;
31734;SDS011;18313;48.518;9.124;2023-09-18T04:15:19;7.85;;;2.80;;
31734;SDS011;18313;48.518;9.124;2023-09-18T04:17:47;9.38;;;2.72;;
31734;SDS011;18313;48.518;9.124;2023-09-18T04:20:15;12.05;;;2.83;;
31734;SDS011;18313;48.518;9.124;2023-09-18T04:22:46;10.60;;;3.25;;
31734;SDS011;18313;48.518;9.124;2023-09-18T04:25:17;9.27;;;2.83;;
31734;SDS011;18313;48.518;9.124;2023-09-18T04:27:46;10.15;;;2.95;;
31734;SDS011;18313;48.518;9.124;2023-09-18T04:30:17;9.15;;;2.90;;
31734;SDS011;18313;48.518;9.124;2023-09-18T04:32:46;11.88;;;2.90;;
31734;SDS011;18313;48.518;9.124;2023-09-18T04:35:14;8.10;;;3.10;;
31734;SDS011;18313;48.518;9.124;2023-09-18T04:37:41;13.07;;;3.00;;
31734;SDS011;18313;48.518;9.124;2023-09-18T04:40:08;13.43;;;2.58;;
31734;SDS011;18313;48.518;9.124;2023-09-18T04:42:37;11.55;;;2.65;;
31734;SDS011;18313;48.518;9.124;2023-09-18T04:45:06;11.63;;;2.83;;
31734;SDS011;18313;48.518;9.124;2023-09-18T04:47:33;9.02;;;2.70;;
31734;SDS011;18313;48.518;9.124;2023-09-18T04:50:01;10.98;;;2.50;;
31734;SDS011;18313;48.518;9.124;2023-09-18T04:52:35;13.95;;;2.72;;
31734;SDS011;18313;48.518;9.124;2023-09-18T04:55:03;13.75;;;3.08;;
31734;SDS011;18313;48.518;9.124;2023-09-18T04:57:33;11.40;;;2.75;;
31734;SDS011;18313;48.518;9.124;2023-09-18T05:00:01;9.15;;;2.47;;
31734;SDS011;18313;48.518;9.124;2023-09-18T05:02:42;10.93;;;2.40;;
31734;SDS011;18313;48.518;9.124;2023-09-18T05:05:11;18.42;;;3.08;;
31734;SDS011;18313;48.518;9.124;2023-09-18T05:07:38;11.85;;;2.95;;
31734;SDS011;18313;48.518;9.124;2023-09-18T05:10:06;16.90;;;3.30;;
31734;SDS011;18313;48.518;9.124;2023-09-18T05:12:33;12.35;;;2.78;;
31734;SDS011;18313;48.518;9.124;2023-09-18T05:15:03;13.65;;;3.38;;
31734;SDS011;18313;48.518;9.124;2023-09-18T05:17:40;12.10;;;2.70;;
31734;SDS011;18313;48.518;9.124;2023-09-18T05:20:19;8.73;;;2.30;;
31734;SDS011;18313;48.518;9.124;2023-09-18T05:22:46;10.80;;;2.67;;
31734;SDS011;18313;48.518;9.124;2023-09-18T05:25:13;10.48;;;2.60;;
31734;SDS011;18313;48.518;9.124;2023-09-18T05:27:44;12.93;;;2.85;;
31734;SDS011;18313;48.518;9.124;2023-09-18T05:30:12;12.80;;;2.75;;
31734;SDS011;18313;48.518;9.124;2023-09-18T05:32:42;10.40;;;2.58;;
31734;SDS011;18313;48.518;9.124;2023-09-18T05:35:11;12.38;;;3.28;;
31734;SDS011;18313;48.518;9.124;2023-09-18T05:37:40;13.25;;;2.85;;
31734;SDS011;18313;48.518;9.124;2023-09-18T05:40:09;12.85;;;2.60;;
31734;SDS011;18313;48.518;9.124;2023-09-18T05:42:37;11.18;;;2.63;;
31734;SDS011;18313;48.518;9.124;2023-09-18T05:45:05;10.43;;;2.30;;
31734;SDS011;18313;48.518;9.124;2023-09-18T05:47:33;12.13;;;2.78;;
31734;SDS011;18313;48.518;9.124;2023-09-18T05:50:02;14.23;;;2.80;;
31734;SDS011;18313;48.518;9.124;2023-09-18T05:52:33;11.30;;;2.65;;
31734;SDS011;18313;48.518;9.124;2023-09-18T05:55:04;11.30;;;2.60;;
31734;SDS011;18313;48.518;9.124;2023-09-18T05:57:31;12.95;;;2.80;;
31734;SDS011;18313;48.518;9.124;2023-09-18T05:59:59;8.27;;;2.28;;
31734;SDS011;18313;48.518;9.124;2023-09-18T06:02:26;14.80;;;2.75;;
31734;SDS011;18313;48.518;9.124;2023-09-18T06:04:54;9.45;;;2.33;;
31734;SDS011;18313;48.518;9.124;2023-09-18T06:07:24;10.23;;;2.25;;
31734;SDS011;18313;48.518;9.124;2023-09-18T06:09:52;10.23;;;2.17;;
31734;SDS011;18313;48.518;9.124;2023-09-18T06:12:20;12.57;;;2.15;;
31734;SDS011;18313;48.518;9.124;2023-09-18T06:14:51;10.48;;;2.42;;
31734;SDS011;18313;48.518;9.124;2023-09-18T06:17:18;11.77;;;2.38;;
31734;SDS011;18313;48.518;9.124;2023-09-18T06:19:45;12.48;;;2.53;;
31734;SDS011;18313;48.518;9.124;2023-09-18T06:22:12;10.95;;;2.03;;
31734;SDS011;18313;48.518;9.124;2023-09-18T06:24:39;9.65;;;2.00;;
31734;SDS011;18313;48.518;9.124;2023-09-18T06:27:07;8.52;;;1.98;;
31734;SDS011;18313;48.518;9.124;2023-09-18T06:29:34;9.77;;;1.88;;
31734;SDS011;18313;48.518;9.124;2023-09-18T06:32:04;7.93;;;1.70;;
31734;SDS011;18313;48.518;9.124;2023-09-18T06:34:33;9.43;;;1.80;;
31734;SDS011;18313;48.518;9.124;2023-09-18T06:37:00;8.70;;;2.00;;
31734;SDS011;18313;48.518;9.124;2023-09-18T06:39:27;9.75;;;2.55;;
31734;SDS011;18313;48.518;9.124;2023-09-18T06:41:54;8.00;;;1.85;;
31734;SDS011;18313;48.518;9.124;2023-09-18T06:44:21;8.27;;;1.75;;
31734;SDS011;18313;48.518;9.124;2023-09-18T06:46:50;15.48;;;2.00;;
31734;SDS011;18313;48.518;9.124;2023-09-18T06:49:17;7.03;;;2.03;;
31734;SDS011;18313;48.518;9.124;2023-09-18T06:51:46;9.00;;;2.20;;
31734;SDS011;18313;48.518;9.124;2023-09-18T06:54:13;8.80;;;2.30;;
31734;SDS011;18313;48.518;9.124;2023-09-18T06:56:41;8.43;;;2.30;;
31734;SDS011;18313;48.518;9.124;2023-09-18T06:59:11;8.13;;;2.20;;
31734;SDS011;18313;48.518;9.124;2023-09-18T07:01:41;10.07;;;2.38;;
31734;SDS011;18313;48.518;9.124;2023-09-18T07:04:09;10.90;;;2.75;;
31734;SDS011;18313;48.518;9.124;2023-09-18T07:06:37;8.65;;;2.22;;
31734;SDS011;18313;48.518;9.124;2023-09-18T07:09:04;10.35;;;2.20;;
31734;SDS011;18313;48.518;9.124;2023-09-18T07:11:33;6.45;;;2.05;;
31734;SDS011;18313;48.518;9.124;2023-09-18T07:14:01;9.68;;;2.25;;
31734;SDS011;18313;48.518;9.124;2023-09-18T07:16:33;8.93;;;2.00;;
31734;SDS011;18313;48.518;9.124;2023-09-18T07:19:00;12.05;;;2.60;;
31734;SDS011;18313;48.518;9.124;2023-09-18T07:21:32;10.35;;;2.30;;
31734;SDS011;18313;48.518;9.124;2023-09-18T07:24:01;12.30;;;2.38;;
31734;SDS011;18313;48.518;9.124;2023-09-18T07:26:28;6.63;;;2.55;;
31734;SDS011;18313;48.518;9.124;2023-09-18T07:28:55;11.95;;;2.20;;
31734;SDS011;18313;48.518;9.124;2023-09-18T07:31:26;9.50;;;1.90;;
31734;SDS011;18313;48.518;9.124;2023-09-18T07:33:53;6.57;;;1.98;;
31734;SDS011;18313;48.518;9.124;2023-09-18T07:36:20;9.98;;;1.75;;
31734;SDS011;18313;48.518;9.124;2023-09-18T07:38:48;14.25;;;2.05;;
31734;SDS011;18313;48.518;9.124;2023-09-18T07:41:16;9.88;;;2.25;;
31734;SDS011;18313;48.518;9.124;2023-09-18T07:43:45;7.47;;;1.98;;
31734;SDS011;18313;48.518;9.124;2023-09-18T07:46:12;13.48;;;3.05;;
31734;SDS011;18313;48.518;9.124;2023-09-18T07:48:39;8.93;;;1.95;;
31734;SDS011;18313;48.518;9.124;2023-09-18T07:51:10;8.77;;;2.40;;
31734;SDS011;18313;48.518;9.124;2023-09-18T07:53:40;10.68;;;2.00;;
31734;SDS011;18313;48.518;9.124;2023-09-18T07:56:07;7.82;;;2.08;;
31734;SDS011;18313;48.518;9.124;2023-09-18T07:58:34;5.22;;;1.70;;
31734;SDS011;18313;48.518;9.124;2023-09-18T08:01:05;10.05;;;2.00;;
31734;SDS011;18313;48.518;9.124;2023-09-18T08:03:32;7.53;;;1.60;;
31734;SDS011;18313;48.518;9.124;2023-09-18T08:05:59;8.63;;;1.35;;
31734;SDS011;18313;48.518;9.124;2023-09-18T08:08:27;8.32;;;1.48;;
31734;SDS011;18313;48.518;9.124;2023-09-18T08:10:56;8.75;;;1.75;;
31734;SDS011;18313;48.518;9.124;2023-09-18T08:13:23;5.93;;;1.30;;
31734;SDS011;18313;48.518;9.124;2023-09-18T08:15:50;8.80;;;1.65;;
31734;SDS011;18313;48.518;9.124;2023-09-18T08:18:19;6.45;;;1.50;;
31734;SDS011;18313;48.518;9.124;2023-09-18T08:20:46;12.60;;;1.50;;
31734;SDS011;18313;48.518;9.124;2023-09-18T08:23:14;12.32;;;1.55;;
31734;SDS011;18313;48.518;9.124;2023-09-18T08:25:41;6.60;;;1.45;;
31734;SDS011;18313;48.518;9.124;2023-09-18T08:28:09;8.13;;;1.50;;
31734;SDS011;18313;48.518;9.124;2023-09-18T08:30:36;11.88;;;1.90;;
31734;SDS011;18313;48.518;9.124;2023-09-18T08:33:06;9.35;;;1.65;;
31734;SDS011;18313;48.518;9.124;2023-09-18T08:35:34;5.78;;;1.42;;
31734;SDS011;18313;48.518;9.124;2023-09-18T08:38:01;5.65;;;1.30;;
31734;SDS011;18313;48.518;9.124;2023-09-18T08:40:30;4.63;;;1.05;;
31734;SDS011;18313;48.518;9.124;2023-09-18T08:42:57;9.85;;;1.33;;
31734;SDS011;18313;48.518;9.124;2023-09-18T08:45:52;6.53;;;1.10;;
31734;SDS011;18313;48.518;9.124;2023-09-18T08:48:19;6.60;;;1.23;;
31734;SDS011;18313;48.518;9.124;2023-09-18T08:50:48;4.15;;;1.02;;
31734;SDS011;18313;48.518;9.124;2023-09-18T08:53:15;6.63;;;1.70;;
31734;SDS011;18313;48.518;9.124;2023-09-18T08:55:43;5.65;;;1.20;;
31734;SDS011;18313;48.518;9.124;2023-09-18T08:58:10;4.80;;;1.27;;
31734;SDS011;18313;48.518;9.124;2023-09-18T09:00:37;5.63;;;1.38;;
31734;SDS011;18313;48.518;9.124;2023-09-18T09:03:04;4.32;;;1.52;;
31734;SDS011;18313;48.518;9.124;2023-09-18T09:05:32;6.18;;;1.52;;
31734;SDS011;18313;48.518;9.124;2023-09-18T09:08:00;5.47;;;1.80;;
31734;SDS011;18313;48.518;9.124;2023-09-18T09:10:28;6.32;;;1.10;;
31734;SDS011;18313;48.518;9.124;2023-09-18T09:12:57;3.10;;;1.30;;
31734;SDS011;18313;48.518;9.124;2023-09-18T09:15:28;9.57;;;1.50;;
31734;SDS011;18313;48.518;9.124;2023-09-18T09:18:03;4.88;;;0.98;;
31734;SDS011;18313;48.518;9.124;2023-09-18T09:20:32;4.38;;;1.10;;
31734;SDS011;18313;48.518;9.124;2023-09-18T09:23:03;7.22;;;1.52;;
31734;SDS011;18313;48.518;9.124;2023-09-18T09:25:33;5.03;;;1.25;;
31734;SDS011;18313;48.518;9.124;2023-09-18T09:28:02;3.83;;;0.90;;
31734;SDS011;18313;48.518;9.124;2023-09-18T09:30:32;5.43;;;1.02;;
31734;SDS011;18313;48.518;9.124;2023-09-18T09:33:00;2.75;;;1.00;;
31734;SDS011;18313;48.518;9.124;2023-09-18T09:35:30;3.80;;;0.93;;
31734;SDS011;18313;48.518;9.124;2023-09-18T09:38:02;3.60;;;1.23;;
31734;SDS011;18313;48.518;9.124;2023-09-18T09:40:38;3.35;;;0.90;;
31734;SDS011;18313;48.518;9.124;2023-09-18T09:43:08;3.05;;;1.10;;
31734;SDS011;18313;48.518;9.124;2023-09-18T09:45:37;2.88;;;1.48;;
31734;SDS011;18313;48.518;9.124;2023-09-18T09:48:05;4.82;;;1.05;;
31734;SDS011;18313;48.518;9.124;2023-09-18T09:50:34;4.40;;;1.05;;
31734;SDS011;18313;48.518;9.124;2023-09-18T09:53:13;3.25;;;1.15;;
31734;SDS011;18313;48.518;9.124;2023-09-18T09:55:41;3.28;;;1.17;;
31734;SDS011;18313;48.518;9.124;2023-09-18T09:58:08;4.82;;;1.08;;
31734;SDS011;18313;48.518;9.124;2023-09-18T10:00:41;2.70;;;1.10;;
31734;SDS011;18313;48.518;9.124;2023-09-18T10:03:13;6.00;;;1.40;;
31734;SDS011;18313;48.518;9.124;2023-09-18T10:05:45;3.60;;;1.13;;
31734;SDS011;18313;48.518;9.124;2023-09-18T10:08:17;3.78;;;1.00;;
31734;SDS011;18313;48.518;9.124;2023-09-18T10:10:55;3.10;;;1.08;;
31734;SDS011;18313;48.518;9.124;2023-09-18T10:16:01;2.75;;;0.88;;
31734;SDS011;18313;48.518;9.124;2023-09-18T10:18:44;3.75;;;1.10;;
31734;SDS011;18313;48.518;9.124;2023-09-18T10:24:37;3.13;;;1.23;;
31734;SDS011;18313;48.518;9.124;2023-09-18T10:27:05;5.55;;;0.98;;
31734;SDS011;18313;48.518;9.124;2023-09-18T10:29:36;2.97;;;0.95;;
31734;SDS011;18313;48.518;9.124;2023-09-18T10:32:03;3.25;;;0.90;;
31734;SDS011;18313;48.518;9.124;2023-09-18T10:34:31;3.08;;;1.10;;
31734;SDS011;18313;48.518;9.124;2023-09-18T10:37:01;4.18;;;1.00;;
31734;SDS011;18313;48.518;9.124;2023-09-18T10:39:36;2.53;;;0.68;;
31734;SDS011;18313;48.518;9.124;2023-09-18T10:42:07;3.20;;;1.00;;
31734;SDS011;18313;48.518;9.124;2023-09-18T10:44:34;5.13;;;0.98;;
31734;SDS011;18313;48.518;9.124;2023-09-18T10:47:03;4.97;;;1.00;;
31734;SDS011;18313;48.518;9.124;2023-09-18T10:49:33;3.08;;;1.00;;
31734;SDS011;18313;48.518;9.124;2023-09-18T10:52:01;3.35;;;1.00;;
31734;SDS011;18313;48.518;9.124;2023-09-18T10:54:31;3.70;;;0.88;;
31734;SDS011;18313;48.518;9.124;2023-09-18T10:56:58;5.85;;;1.20;;
31734;SDS011;18313;48.518;9.124;2023-09-18T10:59:25;3.38;;;1.20;;
31734;SDS011;18313;48.518;9.124;2023-09-18T11:01:55;3.05;;;1.10;;
31734;SDS011;18313;48.518;9.124;2023-09-18T11:04:22;4.82;;;1.30;;
31734;SDS011;18313;48.518;9.124;2023-09-18T11:09:20;3.28;;;1.00;;
31734;SDS011;18313;48.518;9.124;2023-09-18T11:11:52;4.88;;;1.13;;
31734;SDS011;18313;48.518;9.124;2023-09-18T11:17:27;2.58;;;1.00;;
31734;SDS011;18313;48.518;9.124;2023-09-18T11:22:39;3.65;;;1.00;;
31734;SDS011;18313;48.518;9.124;2023-09-18T11:28:12;4.32;;;1.10;;
31734;SDS011;18313;48.518;9.124;2023-09-18T11:36:04;3.40;;;1.10;;
31734;SDS011;18313;48.518;9.124;2023-09-18T11:38:59;4.47;;;1.17;;
31734;SDS011;18313;48.518;9.124;2023-09-18T11:41:34;3.40;;;1.15;;
31734;SDS011;18313;48.518;9.124;2023-09-18T11:44:48;4.07;;;1.10;;
31734;SDS011;18313;48.518;9.124;2023-09-18T11:46:56;3.92;;;1.10;;
31734;SDS011;18313;48.518;9.124;2023-09-18T11:49:24;3.42;;;0.98;;
31734;SDS011;18313;48.518;9.124;2023-09-18T11:51:54;5.78;;;1.17;;
31734;SDS011;18313;48.518;9.124;2023-09-18T11:54:25;5.00;;;1.20;;
31734;SDS011;18313;48.518;9.124;2023-09-18T11:56:54;4.13;;;1.10;;
31734;SDS011;18313;48.518;9.124;2023-09-18T11:59:35;2.90;;;1.20;;
31734;SDS011;18313;48.518;9.124;2023-09-18T12:02:14;4.03;;;1.40;;
31734;SDS011;18313;48.518;9.124;2023-09-18T12:04:55;4.43;;;0.95;;
31734;SDS011;18313;48.518;9.124;2023-09-18T12:07:23;2.33;;;0.90;;
31734;SDS011;18313;48.518;9.124;2023-09-18T12:09:51;4.40;;;0.90;;
31734;SDS011;18313;48.518;9.124;2023-09-18T12:12:21;3.58;;;0.95;;
31734;SDS011;18313;48.518;9.124;2023-09-18T12:14:48;3.65;;;0.88;;
31734;SDS011;18313;48.518;9.124;2023-09-18T12:17:15;2.72;;;0.90;;
31734;SDS011;18313;48.518;9.124;2023-09-18T12:19:52;2.65;;;0.90;;
31734;SDS011;18313;48.518;9.124;2023-09-18T12:22:27;3.88;;;0.95;;
31734;SDS011;18313;48.518;9.124;2023-09-18T12:25:08;2.88;;;1.00;;
31734;SDS011;18313;48.518;9.124;2023-09-18T12:27:42;4.50;;;1.00;;
31734;SDS011;18313;48.518;9.124;2023-09-18T12:30:09;2.85;;;0.90;;
31734;SDS011;18313;48.518;9.124;2023-09-18T12:32:38;4.35;;;1.00;;
31734;SDS011;18313;48.518;9.124;2023-09-18T12:35:06;2.67;;;0.80;;
31734;SDS011;18313;48.518;9.124;2023-09-18T12:37:42;2.95;;;0.95;;
31734;SDS011;18313;48.518;9.124;2023-09-18T12:40:22;3.28;;;0.93;;
31734;SDS011;18313;48.518;9.124;2023-09-18T12:42:50;4.10;;;0.90;;
31734;SDS011;18313;48.518;9.124;2023-09-18T12:45:18;4.43;;;1.00;;
31734;SDS011;18313;48.518;9.124;2023-09-18T12:47:46;3.83;;;1.40;;
31734;SDS011;18313;48.518;9.124;2023-09-18T12:50:13;3.08;;;1.15;;
31734;SDS011;18313;48.518;9.124;2023-09-18T12:52:41;3.17;;;1.00;;
31734;SDS011;18313;48.518;9.124;2023-09-18T12:55:08;5.43;;;0.98;;
31734;SDS011;18313;48.518;9.124;2023-09-18T12:57:47;2.08;;;0.80;;
31734;SDS011;18313;48.518;9.124;2023-09-18T13:00:18;2.50;;;0.70;;
31734;SDS011;18313;48.518;9.124;2023-09-18T13:02:50;4.23;;;1.00;;
31734;SDS011;18313;48.518;9.124;2023-09-18T13:05:22;2.65;;;1.08;;
31734;SDS011;18313;48.518;9.124;2023-09-18T13:07:53;3.22;;;0.80;;
31734;SDS011;18313;48.518;9.124;2023-09-18T13:10:22;4.03;;;0.80;;
31734;SDS011;18313;48.518;9.124;2023-09-18T13:12:54;4.47;;;1.05;;
31734;SDS011;18313;48.518;9.124;2023-09-18T13:15:26;5.35;;;1.00;;
31734;SDS011;18313;48.518;9.124;2023-09-18T13:17:59;2.47;;;1.05;;
31734;SDS011;18313;48.518;9.124;2023-09-18T13:20:30;4.88;;;0.98;;
31734;SDS011;18313;48.518;9.124;2023-09-18T13:22:59;2.83;;;1.00;;
31734;SDS011;18313;48.518;9.124;2023-09-18T13:25:33;3.97;;;0.98;;
31734;SDS011;18313;48.518;9.124;2023-09-18T13:28:05;4.03;;;1.00;;
31734;SDS011;18313;48.518;9.124;2023-09-18T13:30:37;3.05;;;0.93;;
31734;SDS011;18313;48.518;9.124;2023-09-18T13:33:06;5.25;;;1.10;;
31734;SDS011;18313;48.518;9.124;2023-09-18T13:35:43;2.75;;;0.80;;
31734;SDS011;18313;48.518;9.124;2023-09-18T13:38:11;2.05;;;0.88;;
31734;SDS011;18313;48.518;9.124;2023-09-18T13:40:39;4.57;;;1.13;;
31734;SDS011;18313;48.518;9.124;2023-09-18T13:43:09;2.50;;;1.00;;
31734;SDS011;18313;48.518;9.124;2023-09-18T13:45:37;3.30;;;0.90;;
31734;SDS011;18313;48.518;9.124;2023-09-18T13:48:06;3.70;;;0.80;;
31734;SDS011;18313;48.518;9.124;2023-09-18T13:50:34;2.40;;;0.75;;
31734;SDS011;18313;48.518;9.124;2023-09-18T13:53:02;1.67;;;0.80;;
31734;SDS011;18313;48.518;9.124;2023-09-18T13:55:30;1.90;;;0.77;;
31734;SDS011;18313;48.518;9.124;2023-09-18T13:57:58;2.90;;;0.88;;
31734;SDS011;18313;48.518;9.124;2023-09-18T14:00:25;3.97;;;0.93;;
31734;SDS011;18313;48.518;9.124;2023-09-18T14:02:53;4.38;;;0.95;;
31734;SDS011;18313;48.518;9.124;2023-09-18T14:05:21;4.30;;;1.13;;
31734;SDS011;18313;48.518;9.124;2023-09-18T14:07:48;2.08;;;0.70;;
31734;SDS011;18313;48.518;9.124;2023-09-18T14:10:15;2.50;;;0.93;;
31734;SDS011;18313;48.518;9.124;2023-09-18T14:12:45;2.38;;;0.90;;
31734;SDS011;18313;48.518;9.124;2023-09-18T14:15:12;4.03;;;1.10;;
31734;SDS011;18313;48.518;9.124;2023-09-18T14:17:39;2.65;;;0.82;;
31734;SDS011;18313;48.518;9.124;2023-09-18T14:20:06;2.95;;;1.00;;
31734;SDS011;18313;48.518;9.124;2023-09-18T14:22:34;3.92;;;0.93;;
31734;SDS011;18313;48.518;9.124;2023-09-18T14:25:02;2.55;;;0.90;;
31734;SDS011;18313;48.518;9.124;2023-09-18T14:27:33;2.63;;;0.93;;
31734;SDS011;18313;48.518;9.124;2023-09-18T14:30:02;2.55;;;0.70;;
31734;SDS011;18313;48.518;9.124;2023-09-18T14:32:33;3.65;;;0.95;;
31734;SDS011;18313;48.518;9.124;2023-09-18T14:35:04;2.65;;;1.02;;
31734;SDS011;18313;48.518;9.124;2023-09-18T14:37:35;2.63;;;0.90;;
31734;SDS011;18313;48.518;9.124;2023-09-18T14:40:03;3.00;;;0.95;;
31734;SDS011;18313;48.518;9.124;2023-09-18T14:42:31;4.43;;;0.90;;
31734;SDS011;18313;48.518;9.124;2023-09-18T14:45:00;3.22;;;0.90;;
31734;SDS011;18313;48.518;9.124;2023-09-18T14:47:28;3.25;;;0.95;;
31734;SDS011;18313;48.518;9.124;2023-09-18T14:49:56;3.83;;;1.00;;
31734;SDS011;18313;48.518;9.124;2023-09-18T14:52:25;1.92;;;0.90;;
31734;SDS011;18313;48.518;9.124;2023-09-18T14:54:52;4.05;;;0.90;;
31734;SDS011;18313;48.518;9.124;2023-09-18T14:57:20;2.95;;;1.00;;
31734;SDS011;18313;48.518;9.124;2023-09-18T14:59:52;5.50;;;1.10;;
31734;SDS011;18313;48.518;9.124;2023-09-18T15:02:19;3.47;;;0.90;;
31734;SDS011;18313;48.518;9.124;2023-09-18T15:04:46;2.33;;;0.85;;
31734;SDS011;18313;48.518;9.124;2023-09-18T15:07:14;4.65;;;1.30;;
31734;SDS011;18313;48.518;9.124;2023-09-18T15:09:41;2.58;;;1.00;;
31734;SDS011;18313;48.518;9.124;2023-09-18T15:12:08;2.78;;;0.80;;
31734;SDS011;18313;48.518;9.124;2023-09-18T15:14:38;3.00;;;0.93;;
31734;SDS011;18313;48.518;9.124;2023-09-18T15:17:05;3.85;;;0.90;;
31734;SDS011;18313;48.518;9.124;2023-09-18T15:19:34;3.00;;;0.90;;